sensor_id;sensor_type;location;lat;lon;timestamp;temperature;humidity
41694;DHT22;27377;50.666;9.150;2023-07-29T00:01:00;18.30;99.90
41694;DHT22;27377;50.666;9.150;2023-07-29T00:03:26;18.30;99.90
41694;DHT22;27377;50.666;9.150;2023-07-29T00:05:52;18.30;99.90
41694;DHT22;27377;50.666;9.150;2023-07-29T00:08:17;18.30;99.90
41694;DHT22;27377;50.666;9.150;2023-07-29T00:10:43;18.30;99.90
41694;DHT22;27377;50.666;9.150;2023-07-29T00:13:08;18.30;99.90
41694;DHT22;27377;50.666;9.150;2023-07-29T00:15:34;18.20;99.90
41694;DHT22;27377;50.666;9.150;2023-07-29T00:18:00;18.30;99.90
41694;DHT22;27377;50.666;9.150;2023-07-29T00:20:26;18.20;99.90
41694;DHT22;27377;50.666;9.150;2023-07-29T00:22:52;18.20;99.90
41694;DHT22;27377;50.666;9.150;2023-07-29T00:25:20;18.20;99.90
41694;DHT22;27377;50.666;9.150;2023-07-29T00:27:46;18.20;99.90
41694;DHT22;27377;50.666;9.150;2023-07-29T00:30:12;18.20;99.90
41694;DHT22;27377;50.666;9.150;2023-07-29T00:32:37;18.10;99.90
41694;DHT22;27377;50.666;9.150;2023-07-29T00:35:03;18.10;99.90
41694;DHT22;27377;50.666;9.150;2023-07-29T00:37:30;18.10;99.90
41694;DHT22;27377;50.666;9.150;2023-07-29T00:39:56;18.10;99.90
41694;DHT22;27377;50.666;9.150;2023-07-29T00:42:21;18.00;99.90
41694;DHT22;27377;50.666;9.150;2023-07-29T00:44:47;18.00;99.90
41694;DHT22;27377;50.666;9.150;2023-07-29T00:47:15;18.00;99.90
41694;DHT22;27377;50.666;9.150;2023-07-29T00:49:42;18.10;99.90
41694;DHT22;27377;50.666;9.150;2023-07-29T00:52:08;18.10;99.90
41694;DHT22;27377;50.666;9.150;2023-07-29T00:54:36;18.10;99.90
41694;DHT22;27377;50.666;9.150;2023-07-29T00:57:02;18.10;99.90
41694;DHT22;27377;50.666;9.150;2023-07-29T00:59:28;18.10;99.90
41694;DHT22;27377;50.666;9.150;2023-07-29T01:01:55;18.10;99.90
41694;DHT22;27377;50.666;9.150;2023-07-29T01:04:21;18.10;99.90
41694;DHT22;27377;50.666;9.150;2023-07-29T01:07:03;18.10;99.90
41694;DHT22;27377;50.666;9.150;2023-07-29T01:09:56;18.10;99.90
41694;DHT22;27377;50.666;9.150;2023-07-29T01:12:29;18.10;99.90
41694;DHT22;27377;50.666;9.150;2023-07-29T01:17:43;18.10;99.90
41694;DHT22;27377;50.666;9.150;2023-07-29T01:20:14;18.10;99.90
41694;DHT22;27377;50.666;9.150;2023-07-29T01:22:40;18.10;99.90
41694;DHT22;27377;50.666;9.150;2023-07-29T01:25:07;18.20;99.90
41694;DHT22;27377;50.666;9.150;2023-07-29T01:27:32;18.20;99.90
41694;DHT22;27377;50.666;9.150;2023-07-29T01:29:58;18.20;99.90
41694;DHT22;27377;50.666;9.150;2023-07-29T01:35:36;18.20;99.90
41694;DHT22;27377;50.666;9.150;2023-07-29T01:38:17;18.20;99.90
41694;DHT22;27377;50.666;9.150;2023-07-29T01:40:44;18.20;99.90
41694;DHT22;27377;50.666;9.150;2023-07-29T01:43:11;18.10;99.90
41694;DHT22;27377;50.666;9.150;2023-07-29T01:45:37;18.10;99.90
41694;DHT22;27377;50.666;9.150;2023-07-29T01:48:07;18.20;99.90
41694;DHT22;27377;50.666;9.150;2023-07-29T01:50:34;18.10;99.90
41694;DHT22;27377;50.666;9.150;2023-07-29T01:52:59;18.20;99.90
41694;DHT22;27377;50.666;9.150;2023-07-29T01:55:25;18.10;99.90
41694;DHT22;27377;50.666;9.150;2023-07-29T01:57:50;18.10;99.90
41694;DHT22;27377;50.666;9.150;2023-07-29T02:00:18;18.10;99.90
41694;DHT22;27377;50.666;9.150;2023-07-29T02:02:43;18.10;99.90
41694;DHT22;27377;50.666;9.150;2023-07-29T02:05:09;18.20;99.90
41694;DHT22;27377;50.666;9.150;2023-07-29T02:07:35;18.20;99.90
41694;DHT22;27377;50.666;9.150;2023-07-29T02:10:00;18.20;99.90
41694;DHT22;27377;50.666;9.150;2023-07-29T02:12:26;18.10;99.90
41694;DHT22;27377;50.666;9.150;2023-07-29T02:14:51;18.10;99.90
41694;DHT22;27377;50.666;9.150;2023-07-29T02:17:17;18.20;99.90
41694;DHT22;27377;50.666;9.150;2023-07-29T02:19:42;18.20;99.90
41694;DHT22;27377;50.666;9.150;2023-07-29T02:22:09;18.20;99.90
41694;DHT22;27377;50.666;9.150;2023-07-29T02:24:35;18.20;99.90
41694;DHT22;27377;50.666;9.150;2023-07-29T02:27:00;18.20;99.90
41694;DHT22;27377;50.666;9.150;2023-07-29T02:29:26;18.10;99.90
41694;DHT22;27377;50.666;9.150;2023-07-29T02:31:51;18.10;99.90
41694;DHT22;27377;50.666;9.150;2023-07-29T02:34:17;18.20;99.90
41694;DHT22;27377;50.666;9.150;2023-07-29T02:36:42;18.20;99.90
41694;DHT22;27377;50.666;9.150;2023-07-29T02:39:08;18.20;99.90
41694;DHT22;27377;50.666;9.150;2023-07-29T02:41:34;18.20;99.90
41694;DHT22;27377;50.666;9.150;2023-07-29T02:43:59;18.20;99.90
41694;DHT22;27377;50.666;9.150;2023-07-29T02:46:25;18.20;99.90
41694;DHT22;27377;50.666;9.150;2023-07-29T02:48:50;18.20;99.90
41694;DHT22;27377;50.666;9.150;2023-07-29T02:51:16;18.20;99.90
41694;DHT22;27377;50.666;9.150;2023-07-29T02:53:42;18.10;99.90
41694;DHT22;27377;50.666;9.150;2023-07-29T02:56:07;18.20;99.90
41694;DHT22;27377;50.666;9.150;2023-07-29T02:58:34;18.20;99.90
41694;DHT22;27377;50.666;9.150;2023-07-29T03:01:01;18.20;99.90
41694;DHT22;27377;50.666;9.150;2023-07-29T03:03:28;18.20;99.90
41694;DHT22;27377;50.666;9.150;2023-07-29T03:06:04;18.10;99.90
41694;DHT22;27377;50.666;9.150;2023-07-29T03:08:30;18.10;99.90
41694;DHT22;27377;50.666;9.150;2023-07-29T03:10:56;18.20;99.90
41694;DHT22;27377;50.666;9.150;2023-07-29T03:13:22;18.20;99.90
41694;DHT22;27377;50.666;9.150;2023-07-29T03:15:48;18.20;99.90
41694;DHT22;27377;50.666;9.150;2023-07-29T03:18:14;18.20;99.90
41694;DHT22;27377;50.666;9.150;2023-07-29T03:20:40;18.10;99.90
41694;DHT22;27377;50.666;9.150;2023-07-29T03:23:05;18.10;99.90
41694;DHT22;27377;50.666;9.150;2023-07-29T03:25:31;18.20;99.90
41694;DHT22;27377;50.666;9.150;2023-07-29T03:27:57;18.20;99.90
41694;DHT22;27377;50.666;9.150;2023-07-29T03:30:22;18.20;99.90
41694;DHT22;27377;50.666;9.150;2023-07-29T03:32:49;18.10;99.90
41694;DHT22;27377;50.666;9.150;2023-07-29T03:35:15;18.10;99.90
41694;DHT22;27377;50.666;9.150;2023-07-29T03:37:41;18.10;99.90
41694;DHT22;27377;50.666;9.150;2023-07-29T03:40:07;18.10;99.90
41694;DHT22;27377;50.666;9.150;2023-07-29T03:42:33;18.10;99.90
41694;DHT22;27377;50.666;9.150;2023-07-29T03:44:58;18.20;99.90
41694;DHT22;27377;50.666;9.150;2023-07-29T03:47:24;18.20;99.90
41694;DHT22;27377;50.666;9.150;2023-07-29T03:49:50;18.10;99.90
41694;DHT22;27377;50.666;9.150;2023-07-29T03:52:15;18.20;99.90
41694;DHT22;27377;50.666;9.150;2023-07-29T03:54:41;18.10;99.90
41694;DHT22;27377;50.666;9.150;2023-07-29T03:57:06;18.10;99.90
41694;DHT22;27377;50.666;9.150;2023-07-29T03:59:32;18.10;99.90
41694;DHT22;27377;50.666;9.150;2023-07-29T04:01:57;18.20;99.90
41694;DHT22;27377;50.666;9.150;2023-07-29T04:04:23;18.20;99.90
41694;DHT22;27377;50.666;9.150;2023-07-29T04:06:49;18.20;99.90
41694;DHT22;27377;50.666;9.150;2023-07-29T04:09:14;18.10;99.90
41694;DHT22;27377;50.666;9.150;2023-07-29T04:11:46;18.10;99.90
41694;DHT22;27377;50.666;9.150;2023-07-29T04:14:12;18.10;99.90
41694;DHT22;27377;50.666;9.150;2023-07-29T04:16:38;18.10;99.90
41694;DHT22;27377;50.666;9.150;2023-07-29T04:19:03;18.10;99.90
41694;DHT22;27377;50.666;9.150;2023-07-29T04:21:29;18.20;99.90
41694;DHT22;27377;50.666;9.150;2023-07-29T04:23:54;18.20;99.90
41694;DHT22;27377;50.666;9.150;2023-07-29T04:26:20;18.10;99.90
41694;DHT22;27377;50.666;9.150;2023-07-29T04:28:45;18.20;99.90
41694;DHT22;27377;50.666;9.150;2023-07-29T04:31:11;18.20;99.90
41694;DHT22;27377;50.666;9.150;2023-07-29T04:33:37;18.20;99.90
41694;DHT22;27377;50.666;9.150;2023-07-29T04:36:03;18.20;99.90
41694;DHT22;27377;50.666;9.150;2023-07-29T04:38:32;18.10;99.90
41694;DHT22;27377;50.666;9.150;2023-07-29T04:41:07;18.20;99.90
41694;DHT22;27377;50.666;9.150;2023-07-29T04:43:34;18.10;99.90
41694;DHT22;27377;50.666;9.150;2023-07-29T04:46:00;18.20;99.90
41694;DHT22;27377;50.666;9.150;2023-07-29T04:48:25;18.10;99.90
41694;DHT22;27377;50.666;9.150;2023-07-29T04:50:51;18.20;99.90
41694;DHT22;27377;50.666;9.150;2023-07-29T04:53:17;18.20;99.90
41694;DHT22;27377;50.666;9.150;2023-07-29T04:55:43;18.20;99.90
41694;DHT22;27377;50.666;9.150;2023-07-29T04:58:09;18.20;99.90
41694;DHT22;27377;50.666;9.150;2023-07-29T05:00:35;18.20;99.90
41694;DHT22;27377;50.666;9.150;2023-07-29T05:03:00;18.20;99.90
41694;DHT22;27377;50.666;9.150;2023-07-29T05:05:26;18.20;99.90
41694;DHT22;27377;50.666;9.150;2023-07-29T05:07:52;18.20;99.90
41694;DHT22;27377;50.666;9.150;2023-07-29T05:10:18;18.20;99.90
41694;DHT22;27377;50.666;9.150;2023-07-29T05:12:43;18.20;99.90
41694;DHT22;27377;50.666;9.150;2023-07-29T05:15:12;18.20;99.90
41694;DHT22;27377;50.666;9.150;2023-07-29T05:17:37;18.10;99.90
41694;DHT22;27377;50.666;9.150;2023-07-29T05:20:04;18.10;99.90
41694;DHT22;27377;50.666;9.150;2023-07-29T05:22:29;18.10;99.90
41694;DHT22;27377;50.666;9.150;2023-07-29T05:24:55;18.20;99.90
41694;DHT22;27377;50.666;9.150;2023-07-29T05:27:21;18.10;99.90
41694;DHT22;27377;50.666;9.150;2023-07-29T05:29:46;18.20;99.90
41694;DHT22;27377;50.666;9.150;2023-07-29T05:32:12;18.20;99.90
41694;DHT22;27377;50.666;9.150;2023-07-29T05:34:37;18.20;99.90
41694;DHT22;27377;50.666;9.150;2023-07-29T05:37:03;18.20;99.90
41694;DHT22;27377;50.666;9.150;2023-07-29T05:39:29;18.20;99.90
41694;DHT22;27377;50.666;9.150;2023-07-29T05:41:56;18.20;99.90
41694;DHT22;27377;50.666;9.150;2023-07-29T05:44:21;18.20;99.90
41694;DHT22;27377;50.666;9.150;2023-07-29T05:46:47;18.20;99.90
41694;DHT22;27377;50.666;9.150;2023-07-29T05:49:13;18.30;99.90
41694;DHT22;27377;50.666;9.150;2023-07-29T05:51:38;18.20;99.90
41694;DHT22;27377;50.666;9.150;2023-07-29T05:54:04;18.20;99.90
41694;DHT22;27377;50.666;9.150;2023-07-29T05:56:29;18.20;99.90
41694;DHT22;27377;50.666;9.150;2023-07-29T05:58:57;18.30;99.90
41694;DHT22;27377;50.666;9.150;2023-07-29T06:01:23;18.30;99.90
41694;DHT22;27377;50.666;9.150;2023-07-29T06:03:49;18.30;99.90
41694;DHT22;27377;50.666;9.150;2023-07-29T06:06:17;18.20;99.90
41694;DHT22;27377;50.666;9.150;2023-07-29T06:08:43;18.30;99.90
41694;DHT22;27377;50.666;9.150;2023-07-29T06:11:09;18.30;99.90
41694;DHT22;27377;50.666;9.150;2023-07-29T06:13:34;18.30;99.90
41694;DHT22;27377;50.666;9.150;2023-07-29T06:16:00;18.30;99.90
41694;DHT22;27377;50.666;9.150;2023-07-29T06:18:26;18.30;99.90
41694;DHT22;27377;50.666;9.150;2023-07-29T06:20:52;18.30;99.90
41694;DHT22;27377;50.666;9.150;2023-07-29T06:23:20;18.30;99.90
41694;DHT22;27377;50.666;9.150;2023-07-29T06:25:46;18.30;99.90
41694;DHT22;27377;50.666;9.150;2023-07-29T06:28:12;18.30;99.90
41694;DHT22;27377;50.666;9.150;2023-07-29T06:30:40;18.30;99.90
41694;DHT22;27377;50.666;9.150;2023-07-29T06:33:06;18.30;99.90
41694;DHT22;27377;50.666;9.150;2023-07-29T06:35:31;18.30;99.90
41694;DHT22;27377;50.666;9.150;2023-07-29T06:37:57;18.30;99.90
41694;DHT22;27377;50.666;9.150;2023-07-29T06:40:23;18.30;99.90
41694;DHT22;27377;50.666;9.150;2023-07-29T06:42:48;18.30;99.90
41694;DHT22;27377;50.666;9.150;2023-07-29T06:45:14;18.30;99.90
41694;DHT22;27377;50.666;9.150;2023-07-29T06:47:40;18.30;99.90
41694;DHT22;27377;50.666;9.150;2023-07-29T06:50:06;18.30;99.90
41694;DHT22;27377;50.666;9.150;2023-07-29T06:52:32;18.30;99.90
41694;DHT22;27377;50.666;9.150;2023-07-29T06:54:58;18.30;99.90
41694;DHT22;27377;50.666;9.150;2023-07-29T06:57:38;18.30;99.90
41694;DHT22;27377;50.666;9.150;2023-07-29T07:00:05;18.30;99.90
41694;DHT22;27377;50.666;9.150;2023-07-29T07:02:30;18.20;99.90
41694;DHT22;27377;50.666;9.150;2023-07-29T07:04:59;18.30;99.90
41694;DHT22;27377;50.666;9.150;2023-07-29T07:07:26;18.30;99.90
41694;DHT22;27377;50.666;9.150;2023-07-29T07:09:51;18.30;99.90
41694;DHT22;27377;50.666;9.150;2023-07-29T07:12:17;18.30;99.90
41694;DHT22;27377;50.666;9.150;2023-07-29T07:14:42;18.30;99.90
41694;DHT22;27377;50.666;9.150;2023-07-29T07:17:08;18.30;99.90
41694;DHT22;27377;50.666;9.150;2023-07-29T07:19:33;18.30;99.90
41694;DHT22;27377;50.666;9.150;2023-07-29T07:21:59;18.30;99.90
41694;DHT22;27377;50.666;9.150;2023-07-29T07:24:25;18.30;99.90
41694;DHT22;27377;50.666;9.150;2023-07-29T07:26:50;18.30;99.90
41694;DHT22;27377;50.666;9.150;2023-07-29T07:29:19;18.30;99.90
41694;DHT22;27377;50.666;9.150;2023-07-29T07:31:50;18.30;99.90
41694;DHT22;27377;50.666;9.150;2023-07-29T07:34:18;18.30;99.90
41694;DHT22;27377;50.666;9.150;2023-07-29T07:36:43;18.30;99.90
41694;DHT22;27377;50.666;9.150;2023-07-29T07:39:09;18.40;99.90
41694;DHT22;27377;50.666;9.150;2023-07-29T07:41:34;18.40;99.90
41694;DHT22;27377;50.666;9.150;2023-07-29T07:44:00;18.30;99.90
41694;DHT22;27377;50.666;9.150;2023-07-29T07:46:25;18.40;99.90
41694;DHT22;27377;50.666;9.150;2023-07-29T07:48:51;18.40;99.90
41694;DHT22;27377;50.666;9.150;2023-07-29T07:51:17;18.40;99.90
41694;DHT22;27377;50.666;9.150;2023-07-29T07:53:42;18.40;99.90
41694;DHT22;27377;50.666;9.150;2023-07-29T07:56:08;18.40;99.90
41694;DHT22;27377;50.666;9.150;2023-07-29T07:58:34;18.40;99.90
41694;DHT22;27377;50.666;9.150;2023-07-29T08:01:04;18.40;99.90
41694;DHT22;27377;50.666;9.150;2023-07-29T08:03:30;18.40;99.90
41694;DHT22;27377;50.666;9.150;2023-07-29T08:05:55;18.40;99.90
41694;DHT22;27377;50.666;9.150;2023-07-29T08:08:21;18.40;99.90
41694;DHT22;27377;50.666;9.150;2023-07-29T08:10:46;18.40;99.90
41694;DHT22;27377;50.666;9.150;2023-07-29T08:13:12;18.40;99.90
41694;DHT22;27377;50.666;9.150;2023-07-29T08:15:38;18.40;99.90
41694;DHT22;27377;50.666;9.150;2023-07-29T08:18:03;18.40;99.90
41694;DHT22;27377;50.666;9.150;2023-07-29T08:20:29;18.40;99.90
41694;DHT22;27377;50.666;9.150;2023-07-29T08:22:54;18.40;99.90
41694;DHT22;27377;50.666;9.150;2023-07-29T08:25:20;18.40;99.90
41694;DHT22;27377;50.666;9.150;2023-07-29T08:27:46;18.40;99.90
41694;DHT22;27377;50.666;9.150;2023-07-29T08:30:12;18.40;99.90
41694;DHT22;27377;50.666;9.150;2023-07-29T08:32:37;18.40;99.90
41694;DHT22;27377;50.666;9.150;2023-07-29T08:35:03;18.40;99.90
41694;DHT22;27377;50.666;9.150;2023-07-29T08:37:29;18.50;99.90
41694;DHT22;27377;50.666;9.150;2023-07-29T08:39:55;18.50;99.90
41694;DHT22;27377;50.666;9.150;2023-07-29T08:42:21;18.50;99.90
41694;DHT22;27377;50.666;9.150;2023-07-29T08:44:49;18.60;99.90
41694;DHT22;27377;50.666;9.150;2023-07-29T08:47:16;18.50;99.90
41694;DHT22;27377;50.666;9.150;2023-07-29T08:49:43;18.60;99.90
41694;DHT22;27377;50.666;9.150;2023-07-29T08:52:11;18.60;99.90
41694;DHT22;27377;50.666;9.150;2023-07-29T08:54:37;18.50;99.90
41694;DHT22;27377;50.666;9.150;2023-07-29T08:57:03;18.50;99.90
41694;DHT22;27377;50.666;9.150;2023-07-29T08:59:30;18.60;99.90
41694;DHT22;27377;50.666;9.150;2023-07-29T09:01:56;18.60;99.90
41694;DHT22;27377;50.666;9.150;2023-07-29T09:04:22;18.60;99.90
41694;DHT22;27377;50.666;9.150;2023-07-29T09:06:50;18.60;99.90
41694;DHT22;27377;50.666;9.150;2023-07-29T09:09:16;18.70;99.90
41694;DHT22;27377;50.666;9.150;2023-07-29T09:11:41;18.70;99.90
41694;DHT22;27377;50.666;9.150;2023-07-29T09:14:07;18.80;99.90
41694;DHT22;27377;50.666;9.150;2023-07-29T09:16:33;18.90;99.90
41694;DHT22;27377;50.666;9.150;2023-07-29T09:19:02;18.90;99.90
41694;DHT22;27377;50.666;9.150;2023-07-29T09:21:28;18.90;99.90
41694;DHT22;27377;50.666;9.150;2023-07-29T09:23:55;18.90;99.90
41694;DHT22;27377;50.666;9.150;2023-07-29T09:26:27;19.00;99.90
41694;DHT22;27377;50.666;9.150;2023-07-29T09:28:55;19.00;99.90
41694;DHT22;27377;50.666;9.150;2023-07-29T09:31:26;19.00;99.90
41694;DHT22;27377;50.666;9.150;2023-07-29T09:34:04;19.10;99.90
41694;DHT22;27377;50.666;9.150;2023-07-29T09:36:32;19.00;99.90
41694;DHT22;27377;50.666;9.150;2023-07-29T09:38:58;19.10;99.90
41694;DHT22;27377;50.666;9.150;2023-07-29T09:41:28;19.10;99.90
41694;DHT22;27377;50.666;9.150;2023-07-29T09:43:57;19.10;99.90
41694;DHT22;27377;50.666;9.150;2023-07-29T09:46:24;19.20;99.90
41694;DHT22;27377;50.666;9.150;2023-07-29T09:48:53;19.20;99.90
41694;DHT22;27377;50.666;9.150;2023-07-29T09:51:19;19.20;99.90
41694;DHT22;27377;50.666;9.150;2023-07-29T09:53:47;19.20;99.90
41694;DHT22;27377;50.666;9.150;2023-07-29T09:56:14;19.20;99.90
41694;DHT22;27377;50.666;9.150;2023-07-29T09:58:40;19.30;99.90
41694;DHT22;27377;50.666;9.150;2023-07-29T10:01:08;19.30;99.90
41694;DHT22;27377;50.666;9.150;2023-07-29T10:03:35;19.40;99.90
41694;DHT22;27377;50.666;9.150;2023-07-29T10:06:03;19.40;99.90
41694;DHT22;27377;50.666;9.150;2023-07-29T10:08:32;19.40;99.90
41694;DHT22;27377;50.666;9.150;2023-07-29T10:11:01;19.40;99.90
41694;DHT22;27377;50.666;9.150;2023-07-29T10:13:33;19.40;99.90
41694;DHT22;27377;50.666;9.150;2023-07-29T10:15:59;19.40;99.90
41694;DHT22;27377;50.666;9.150;2023-07-29T10:18:28;19.40;99.90
41694;DHT22;27377;50.666;9.150;2023-07-29T10:20:56;19.50;99.90
41694;DHT22;27377;50.666;9.150;2023-07-29T10:23:24;19.40;99.90
41694;DHT22;27377;50.666;9.150;2023-07-29T10:25:57;19.50;99.90
41694;DHT22;27377;50.666;9.150;2023-07-29T10:28:26;19.50;99.90
41694;DHT22;27377;50.666;9.150;2023-07-29T10:30:55;19.50;99.90
41694;DHT22;27377;50.666;9.150;2023-07-29T10:33:21;19.50;99.90
41694;DHT22;27377;50.666;9.150;2023-07-29T10:35:47;19.50;99.90
41694;DHT22;27377;50.666;9.150;2023-07-29T10:38:13;19.40;99.90
41694;DHT22;27377;50.666;9.150;2023-07-29T10:40:56;19.50;99.90
41694;DHT22;27377;50.666;9.150;2023-07-29T10:43:26;19.50;99.90
41694;DHT22;27377;50.666;9.150;2023-07-29T10:45:52;19.50;99.90
41694;DHT22;27377;50.666;9.150;2023-07-29T10:51:23;19.50;99.90
41694;DHT22;27377;50.666;9.150;2023-07-29T10:53:54;19.50;99.90
41694;DHT22;27377;50.666;9.150;2023-07-29T10:56:31;19.50;99.90
41694;DHT22;27377;50.666;9.150;2023-07-29T11:01:42;19.50;99.90
41694;DHT22;27377;50.666;9.150;2023-07-29T11:07:18;19.50;99.90
41694;DHT22;27377;50.666;9.150;2023-07-29T11:12:36;19.50;99.90
41694;DHT22;27377;50.666;9.150;2023-07-29T11:15:05;19.50;99.90
41694;DHT22;27377;50.666;9.150;2023-07-29T11:17:44;19.50;99.90
41694;DHT22;27377;50.666;9.150;2023-07-29T11:20:11;19.60;99.90
41694;DHT22;27377;50.666;9.150;2023-07-29T11:22:37;19.60;99.90
41694;DHT22;27377;50.666;9.150;2023-07-29T11:25:04;19.50;99.90
41694;DHT22;27377;50.666;9.150;2023-07-29T11:27:30;19.40;99.90
41694;DHT22;27377;50.666;9.150;2023-07-29T11:29:58;19.50;99.90
41694;DHT22;27377;50.666;9.150;2023-07-29T11:32:24;19.40;99.90
41694;DHT22;27377;50.666;9.150;2023-07-29T11:34:50;19.40;99.90
41694;DHT22;27377;50.666;9.150;2023-07-29T11:37:16;19.40;99.90
41694;DHT22;27377;50.666;9.150;2023-07-29T11:39:44;19.30;99.90
41694;DHT22;27377;50.666;9.150;2023-07-29T11:42:14;19.30;99.90
41694;DHT22;27377;50.666;9.150;2023-07-29T11:44:40;19.30;99.90
41694;DHT22;27377;50.666;9.150;2023-07-29T11:47:10;19.20;99.90
41694;DHT22;27377;50.666;9.150;2023-07-29T11:49:36;19.10;99.90
41694;DHT22;27377;50.666;9.150;2023-07-29T11:52:05;18.90;99.90
41694;DHT22;27377;50.666;9.150;2023-07-29T11:54:31;18.80;99.90
41694;DHT22;27377;50.666;9.150;2023-07-29T11:56:57;18.70;99.90
41694;DHT22;27377;50.666;9.150;2023-07-29T11:59:23;18.70;99.90
41694;DHT22;27377;50.666;9.150;2023-07-29T12:01:49;18.70;99.90
41694;DHT22;27377;50.666;9.150;2023-07-29T12:04:15;18.60;99.90
41694;DHT22;27377;50.666;9.150;2023-07-29T12:06:41;18.60;99.90
41694;DHT22;27377;50.666;9.150;2023-07-29T12:09:07;18.50;99.90
41694;DHT22;27377;50.666;9.150;2023-07-29T12:11:34;18.50;99.90
41694;DHT22;27377;50.666;9.150;2023-07-29T12:14:00;18.50;99.90
41694;DHT22;27377;50.666;9.150;2023-07-29T12:16:26;18.50;99.90
41694;DHT22;27377;50.666;9.150;2023-07-29T12:18:52;18.50;99.90
41694;DHT22;27377;50.666;9.150;2023-07-29T12:21:20;18.50;99.90
41694;DHT22;27377;50.666;9.150;2023-07-29T12:23:46;18.50;99.90
41694;DHT22;27377;50.666;9.150;2023-07-29T12:26:12;18.50;99.90
41694;DHT22;27377;50.666;9.150;2023-07-29T12:28:37;18.50;99.90
41694;DHT22;27377;50.666;9.150;2023-07-29T12:31:07;18.50;99.90
41694;DHT22;27377;50.666;9.150;2023-07-29T12:33:35;18.60;99.90
41694;DHT22;27377;50.666;9.150;2023-07-29T12:36:02;18.60;99.90
41694;DHT22;27377;50.666;9.150;2023-07-29T12:38:28;18.60;99.90
41694;DHT22;27377;50.666;9.150;2023-07-29T12:40:54;18.70;99.90
41694;DHT22;27377;50.666;9.150;2023-07-29T12:43:20;18.70;99.90
41694;DHT22;27377;50.666;9.150;2023-07-29T12:45:45;18.80;99.90
41694;DHT22;27377;50.666;9.150;2023-07-29T12:48:11;18.80;99.90
41694;DHT22;27377;50.666;9.150;2023-07-29T12:50:38;18.80;99.90
41694;DHT22;27377;50.666;9.150;2023-07-29T12:53:05;18.90;99.90
41694;DHT22;27377;50.666;9.150;2023-07-29T12:55:30;18.90;99.90
41694;DHT22;27377;50.666;9.150;2023-07-29T12:57:56;18.90;99.90
41694;DHT22;27377;50.666;9.150;2023-07-29T13:00:23;18.90;99.90
41694;DHT22;27377;50.666;9.150;2023-07-29T13:02:49;19.00;99.90
41694;DHT22;27377;50.666;9.150;2023-07-29T13:05:14;19.00;99.90
41694;DHT22;27377;50.666;9.150;2023-07-29T13:07:40;19.00;99.90
41694;DHT22;27377;50.666;9.150;2023-07-29T13:10:07;19.00;99.90
41694;DHT22;27377;50.666;9.150;2023-07-29T13:12:33;19.10;99.90
41694;DHT22;27377;50.666;9.150;2023-07-29T13:14:58;19.10;99.90
41694;DHT22;27377;50.666;9.150;2023-07-29T13:17:24;19.10;99.90
41694;DHT22;27377;50.666;9.150;2023-07-29T13:19:50;19.20;99.90
41694;DHT22;27377;50.666;9.150;2023-07-29T13:22:16;19.20;99.90
41694;DHT22;27377;50.666;9.150;2023-07-29T13:24:41;19.30;99.90
41694;DHT22;27377;50.666;9.150;2023-07-29T13:27:07;19.30;99.90
41694;DHT22;27377;50.666;9.150;2023-07-29T13:29:33;19.30;99.90
41694;DHT22;27377;50.666;9.150;2023-07-29T13:31:58;19.40;99.90
41694;DHT22;27377;50.666;9.150;2023-07-29T13:34:24;19.40;99.90
41694;DHT22;27377;50.666;9.150;2023-07-29T13:36:49;19.50;99.90
41694;DHT22;27377;50.666;9.150;2023-07-29T13:39:15;19.60;99.90
41694;DHT22;27377;50.666;9.150;2023-07-29T13:41:41;19.60;99.90
41694;DHT22;27377;50.666;9.150;2023-07-29T13:44:06;19.60;99.90
41694;DHT22;27377;50.666;9.150;2023-07-29T13:46:32;19.60;99.90
41694;DHT22;27377;50.666;9.150;2023-07-29T13:48:58;19.60;99.90
41694;DHT22;27377;50.666;9.150;2023-07-29T13:51:23;19.60;99.90
41694;DHT22;27377;50.666;9.150;2023-07-29T13:53:49;19.70;99.90
41694;DHT22;27377;50.666;9.150;2023-07-29T13:56:14;19.70;99.90
41694;DHT22;27377;50.666;9.150;2023-07-29T13:58:40;19.70;99.90
41694;DHT22;27377;50.666;9.150;2023-07-29T14:01:06;19.70;99.90
41694;DHT22;27377;50.666;9.150;2023-07-29T14:03:31;19.60;99.90
41694;DHT22;27377;50.666;9.150;2023-07-29T14:05:57;19.60;99.90
41694;DHT22;27377;50.666;9.150;2023-07-29T14:08:22;19.60;99.90
41694;DHT22;27377;50.666;9.150;2023-07-29T14:10:51;19.60;99.90
41694;DHT22;27377;50.666;9.150;2023-07-29T14:13:17;19.60;99.90
41694;DHT22;27377;50.666;9.150;2023-07-29T14:15:42;19.60;99.90
41694;DHT22;27377;50.666;9.150;2023-07-29T14:18:08;19.60;99.90
41694;DHT22;27377;50.666;9.150;2023-07-29T14:20:33;19.60;99.90
41694;DHT22;27377;50.666;9.150;2023-07-29T14:22:59;19.60;99.90
41694;DHT22;27377;50.666;9.150;2023-07-29T14:25:25;19.60;99.90
41694;DHT22;27377;50.666;9.150;2023-07-29T14:27:50;19.60;99.90
41694;DHT22;27377;50.666;9.150;2023-07-29T14:30:16;19.60;99.90
41694;DHT22;27377;50.666;9.150;2023-07-29T14:32:42;19.60;99.90
41694;DHT22;27377;50.666;9.150;2023-07-29T14:35:08;19.60;99.90
41694;DHT22;27377;50.666;9.150;2023-07-29T14:37:34;19.60;99.90
41694;DHT22;27377;50.666;9.150;2023-07-29T14:40:00;19.60;99.90
41694;DHT22;27377;50.666;9.150;2023-07-29T14:42:26;19.60;99.90
41694;DHT22;27377;50.666;9.150;2023-07-29T14:44:52;19.60;99.90
41694;DHT22;27377;50.666;9.150;2023-07-29T14:47:18;19.60;99.90
41694;DHT22;27377;50.666;9.150;2023-07-29T14:49:44;19.60;99.90
41694;DHT22;27377;50.666;9.150;2023-07-29T14:52:11;19.60;99.90
41694;DHT22;27377;50.666;9.150;2023-07-29T14:54:36;19.60;99.90
41694;DHT22;27377;50.666;9.150;2023-07-29T14:57:02;19.60;99.90
41694;DHT22;27377;50.666;9.150;2023-07-29T14:59:28;19.60;99.90
41694;DHT22;27377;50.666;9.150;2023-07-29T15:01:54;19.60;99.90
41694;DHT22;27377;50.666;9.150;2023-07-29T15:04:19;19.70;99.90
41694;DHT22;27377;50.666;9.150;2023-07-29T15:06:45;19.70;99.90
41694;DHT22;27377;50.666;9.150;2023-07-29T15:09:11;19.80;99.90
41694;DHT22;27377;50.666;9.150;2023-07-29T15:11:36;19.80;99.90
41694;DHT22;27377;50.666;9.150;2023-07-29T15:14:02;19.90;99.90
41694;DHT22;27377;50.666;9.150;2023-07-29T15:16:29;19.90;99.90
41694;DHT22;27377;50.666;9.150;2023-07-29T15:18:54;19.90;99.90
41694;DHT22;27377;50.666;9.150;2023-07-29T15:21:20;20.00;99.90
41694;DHT22;27377;50.666;9.150;2023-07-29T15:23:46;20.00;99.90
41694;DHT22;27377;50.666;9.150;2023-07-29T15:26:12;19.90;99.90
41694;DHT22;27377;50.666;9.150;2023-07-29T15:28:38;20.00;99.90
41694;DHT22;27377;50.666;9.150;2023-07-29T15:31:03;19.90;99.90
41694;DHT22;27377;50.666;9.150;2023-07-29T15:33:29;19.90;99.90
41694;DHT22;27377;50.666;9.150;2023-07-29T15:35:55;19.90;99.90
41694;DHT22;27377;50.666;9.150;2023-07-29T15:38:20;19.90;99.90
41694;DHT22;27377;50.666;9.150;2023-07-29T15:40:46;19.90;99.90
41694;DHT22;27377;50.666;9.150;2023-07-29T15:43:14;19.90;99.90